Time;durP1;ratioP1;P1;durP2;ratioP2;P2;SDS_P1;SDS_P2;PMS_P1;PMS_P2;Temp;Humidity;BMP_temperature;BMP_pressure;BME280_temperature;BME280_humidity;BME280_pressure;Samples;Min_cycle;Max_cycle;Signal;HPM_P1;HPM_P2
2022/04/07 00:01:50;;;;;;;1.43;0.97;;;10.70;99.90;;;;;;5012285;28;21050;-43
2022/04/07 00:04:17;;;;;;;1.73;1.03;;;10.80;99.90;;;;;;5012448;28;20486;-43
2022/04/07 00:06:45;;;;;;;2.37;1.07;;;10.80;99.90;;;;;;5012419;28;20796;-43
2022/04/07 00:09:12;;;;;;;1.37;1.07;;;10.70;99.90;;;;;;5011937;28;21023;-43
2022/04/07 00:11:39;;;;;;;1.33;1.07;;;10.70;99.90;;;;;;5012621;28;20454;-43
2022/04/07 00:14:06;;;;;;;0.90;0.70;;;10.80;99.90;;;;;;5012403;28;20501;-42
2022/04/07 00:16:33;;;;;;;1.10;0.87;;;10.70;99.90;;;;;;5012441;28;20502;-43
2022/04/07 00:19:00;;;;;;;1.90;0.90;;;10.70;99.90;;;;;;5011873;28;20907;-42
2022/04/07 00:21:35;;;;;;;1.10;0.77;;;10.70;99.90;;;;;;5012037;28;20471;-43
2022/04/07 00:24:04;;;;;;;1.13;0.87;;;10.70;99.90;;;;;;5011811;28;20465;-42
2022/04/07 00:26:31;;;;;;;0.70;0.63;;;10.70;99.90;;;;;;5012310;28;20534;-42
2022/04/07 00:28:58;;;;;;;0.90;0.80;;;10.60;99.90;;;;;;5011731;28;20953;-43
2022/04/07 00:31:25;;;;;;;1.07;0.80;;;10.70;99.90;;;;;;5012126;28;20443;-42
2022/04/07 00:33:52;;;;;;;1.00;0.70;;;10.40;99.90;;;;;;5011960;28;20526;-43
2022/04/07 00:36:19;;;;;;;1.00;0.53;;;10.30;99.90;;;;;;5012047;28;20574;-43
2022/04/07 00:38:46;;;;;;;0.90;0.80;;;10.20;99.90;;;;;;5012097;28;20559;-43
2022/04/07 00:41:14;;;;;;;1.13;0.80;;;10.00;99.90;;;;;;5011888;28;20450;-43
2022/04/07 00:43:41;;;;;;;1.10;0.80;;;9.30;99.90;;;;;;5011622;28;20984;-43
2022/04/07 00:46:08;;;;;;;1.67;0.87;;;9.20;99.90;;;;;;5011905;28;20522;-43
2022/04/07 00:48:35;;;;;;;0.87;0.70;;;9.00;99.90;;;;;;5011720;28;20889;-43
2022/04/07 00:51:03;;;;;;;1.40;0.83;;;8.90;99.90;;;;;;5011275;28;20447;-43
2022/04/07 00:53:30;;;;;;;1.27;0.90;;;9.20;99.90;;;;;;5011751;28;20920;-43
2022/04/07 00:56:00;;;;;;;1.27;0.60;;;9.40;99.90;;;;;;5012040;28;20443;-43
2022/04/07 00:58:29;;;;;;;0.80;0.60;;;9.50;99.90;;;;;;5011332;28;20455;-43
2022/04/07 01:00:57;;;;;;;2.20;0.77;;;9.50;99.90;;;;;;5011495;28;20830;-43
2022/04/07 01:03:24;;;;;;;1.47;1.10;;;9.60;99.90;;;;;;5011343;28;20569;-43
2022/04/07 01:05:51;;;;;;;2.47;0.80;;;9.80;99.90;;;;;;5011334;28;20852;-43
2022/04/07 01:08:18;;;;;;;0.90;0.70;;;9.90;99.90;;;;;;5011636;28;20537;-43
2022/04/07 01:10:45;;;;;;;4.03;1.20;;;10.00;99.90;;;;;;5011244;28;20506;-43
2022/04/07 01:13:12;;;;;;;1.13;0.87;;;10.10;99.90;;;;;;5011459;28;20497;-43
2022/04/07 01:15:41;;;;;;;1.40;0.90;;;10.20;99.90;;;;;;5011253;28;20443;-43
2022/04/07 01:18:07;;;;;;;0.70;0.53;;;9.80;99.90;;;;;;5011404;28;20483;-42
2022/04/07 01:20:34;;;;;;;1.33;0.90;;;9.80;99.90;;;;;;5010997;28;21038;-42
2022/04/07 01:23:02;;;;;;;0.80;0.70;;;9.90;99.90;;;;;;5011362;28;20561;-43
2022/04/07 01:25:31;;;;;;;0.90;0.70;;;10.00;99.90;;;;;;5011250;28;20478;-43
2022/04/07 01:27:58;;;;;;;1.13;0.70;;;9.80;99.90;;;;;;5011175;28;20522;-43
2022/04/07 01:30:24;;;;;;;1.00;0.80;;;9.80;99.90;;;;;;5096554;23;20557;-45
2022/04/07 01:32:56;;;;;;;0.70;0.40;;;9.90;99.90;;;;;;5050835;28;20469;-45
2022/04/07 01:35:23;;;;;;;0.73;0.60;;;9.90;99.90;;;;;;5050862;28;20930;-46
2022/04/07 01:37:51;;;;;;;1.40;1.13;;;9.80;99.90;;;;;;5051052;28;20543;-45
2022/04/07 01:40:22;;;;;;;1.70;1.40;;;9.90;99.90;;;;;;5050640;28;20468;-45
2022/04/07 01:42:53;;;;;;;1.30;1.20;;;9.90;99.90;;;;;;5050836;28;20481;-45
2022/04/07 01:45:21;;;;;;;1.47;0.70;;;10.00;99.90;;;;;;5050731;28;20461;-45
2022/04/07 01:47:49;;;;;;;1.03;0.60;;;9.80;99.90;;;;;;5051156;28;20501;-45
2022/04/07 01:50:18;;;;;;;1.63;0.87;;;9.40;99.90;;;;;;5050585;28;20499;-45
2022/04/07 01:52:47;;;;;;;1.00;0.73;;;9.30;99.90;;;;;;5051531;28;20448;-45
2022/04/07 01:55:16;;;;;;;0.90;0.70;;;9.40;99.90;;;;;;5054536;28;20830;-45
2022/04/07 01:57:44;;;;;;;1.13;0.93;;;9.30;99.90;;;;;;5054701;28;21002;-45
2022/04/07 02:00:14;;;;;;;1.00;0.67;;;9.50;99.90;;;;;;5053951;28;20557;-45
2022/04/07 02:02:41;;;;;;;1.20;0.80;;;9.60;99.90;;;;;;5054234;28;21017;-45
2022/04/07 02:05:11;;;;;;;1.17;0.70;;;9.60;99.90;;;;;;5054527;28;21016;-47
2022/04/07 02:07:40;;;;;;;0.70;0.53;;;9.60;99.90;;;;;;5054222;28;20448;-44
2022/04/07 02:10:09;;;;;;;0.87;0.67;;;9.50;99.90;;;;;;5054185;28;20457;-45
2022/04/07 02:12:37;;;;;;;1.33;0.50;;;9.50;99.90;;;;;;5054302;28;20517;-45
2022/04/07 02:15:05;;;;;;;2.60;0.97;;;9.60;99.90;;;;;;5054220;28;20452;-46
2022/04/07 02:17:34;;;;;;;0.80;0.60;;;9.60;99.90;;;;;;5054223;28;20445;-45
2022/04/07 02:20:02;;;;;;;0.80;0.50;;;9.70;99.90;;;;;;5053587;28;20491;-45
2022/04/07 02:22:29;;;;;;;0.80;0.70;;;9.70;99.90;;;;;;5054096;28;20481;-45
2022/04/07 02:24:57;;;;;;;0.70;0.60;;;9.70;99.90;;;;;;5054170;28;20467;-45
2022/04/07 02:27:24;;;;;;;1.17;0.70;;;9.50;99.90;;;;;;5053700;28;20449;-45
2022/04/07 02:29:51;;;;;;;0.90;0.70;;;9.20;99.90;;;;;;5053562;28;20468;-45
2022/04/07 02:32:19;;;;;;;1.20;0.90;;;8.70;99.90;;;;;;5053931;28;20473;-45
2022/04/07 02:34:48;;;;;;;1.37;1.00;;;8.60;99.90;;;;;;5053755;28;20762;-45
2022/04/07 02:37:15;;;;;;;1.43;0.70;;;8.60;99.90;;;;;;5054052;28;20516;-45
2022/04/07 02:39:41;;;;;;;0.80;0.70;;;8.70;99.90;;;;;;5053470;28;21038;-45
2022/04/07 02:42:09;;;;;;;0.90;0.70;;;8.80;99.90;;;;;;5053795;28;20563;-48
2022/04/07 02:44:36;;;;;;;0.90;0.53;;;8.90;99.90;;;;;;5053813;28;20974;-45
2022/04/07 02:47:03;;;;;;;1.20;0.63;;;9.00;99.90;;;;;;5053660;28;20658;-44
2022/04/07 02:49:30;;;;;;;0.90;0.77;;;9.10;99.90;;;;;;5053602;28;20549;-45
2022/04/07 02:51:58;;;;;;;1.30;0.80;;;9.00;99.90;;;;;;5053910;28;20804;-45
2022/04/07 02:54:25;;;;;;;0.70;0.50;;;9.10;99.90;;;;;;5053661;28;20490;-45
2022/04/07 02:56:52;;;;;;;1.10;0.70;;;9.10;99.90;;;;;;5053595;28;20530;-45
2022/04/07 02:59:19;;;;;;;1.00;0.73;;;9.10;99.90;;;;;;5052927;28;20457;-46
2022/04/07 03:01:46;;;;;;;0.73;0.67;;;9.20;99.90;;;;;;5053073;28;20476;-50
2022/04/07 03:04:13;;;;;;;1.07;0.70;;;9.20;99.90;;;;;;5052005;28;20484;-45
2022/04/07 03:06:40;;;;;;;1.37;0.60;;;9.20;99.90;;;;;;5053026;28;20445;-45
2022/04/07 03:09:08;;;;;;;2.03;0.60;;;8.90;99.90;;;;;;5053418;28;20519;-46
2022/04/07 03:11:35;;;;;;;0.87;0.67;;;8.60;99.90;;;;;;5053147;28;20448;-45
2022/04/07 03:14:02;;;;;;;1.10;0.90;;;8.10;99.90;;;;;;5053282;28;20929;-45
2022/04/07 03:16:29;;;;;;;0.90;0.63;;;7.70;99.90;;;;;;5053207;28;20522;-47
2022/04/07 03:18:55;;;;;;;1.87;0.60;;;7.90;99.90;;;;;;5052873;28;20504;-46
2022/04/07 03:21:22;;;;;;;2.33;0.87;;;8.10;99.90;;;;;;5053004;28;20523;-45
2022/04/07 03:23:49;;;;;;;1.73;1.03;;;8.30;99.90;;;;;;5052815;28;20583;-46
2022/04/07 03:26:17;;;;;;;0.70;0.50;;;8.50;99.90;;;;;;5052916;28;20449;-46
2022/04/07 03:28:44;;;;;;;0.80;0.60;;;8.60;99.90;;;;;;5052361;28;20445;-45
2022/04/07 03:31:11;;;;;;;0.90;0.70;;;8.60;99.90;;;;;;5052885;28;20469;-45
2022/04/07 03:33:38;;;;;;;1.13;0.70;;;8.60;99.90;;;;;;5052964;28;20438;-46
2022/04/07 03:36:06;;;;;;;1.37;0.70;;;8.20;99.90;;;;;;5052774;28;20524;-45
2022/04/07 03:38:33;;;;;;;4.23;2.47;;;8.20;99.90;;;;;;5052472;28;20441;-45
2022/04/07 03:41:00;;;;;;;6.70;4.80;;;8.20;99.90;;;;;;5052308;28;20462;-45
2022/04/07 03:43:28;;;;;;;3.47;3.10;;;8.20;99.90;;;;;;5052247;28;21070;-45
2022/04/07 03:45:55;;;;;;;3.60;2.60;;;7.70;99.90;;;;;;5052586;28;20442;-45
2022/04/07 03:48:22;;;;;;;1.30;1.20;;;7.80;99.90;;;;;;5052403;28;20949;-45
2022/04/07 03:50:49;;;;;;;1.30;0.93;;;8.00;99.90;;;;;;5052169;28;20522;-45
2022/04/07 03:53:16;;;;;;;0.70;0.57;;;8.20;99.90;;;;;;5052386;28;20528;-45
2022/04/07 03:55:43;;;;;;;1.53;0.87;;;8.40;99.90;;;;;;5052477;28;20471;-45
2022/04/07 03:58:10;;;;;;;1.10;0.70;;;8.40;99.90;;;;;;5052277;28;20469;-45
2022/04/07 04:00:38;;;;;;;1.33;0.93;;;8.50;99.90;;;;;;5051872;28;20962;-45
2022/04/07 04:03:05;;;;;;;3.03;1.17;;;8.60;99.90;;;;;;5051953;28;20564;-45
2022/04/07 04:05:32;;;;;;;1.03;0.70;;;8.60;99.90;;;;;;5052537;28;20972;-46
2022/04/07 04:07:59;;;;;;;3.50;1.13;;;8.70;99.90;;;;;;5051895;28;20446;-45
2022/04/07 04:10:27;;;;;;;2.00;1.80;;;8.00;99.90;;;;;;5051827;28;21036;-45
2022/04/07 04:12:53;;;;;;;1.70;1.30;;;7.70;99.90;;;;;;5052109;28;20499;-45
2022/04/07 04:15:21;;;;;;;1.30;1.20;;;7.60;99.90;;;;;;5051921;28;20502;-46
2022/04/07 04:17:49;;;;;;;2.03;1.77;;;7.80;99.90;;;;;;5051737;28;20537;-45
2022/04/07 04:20:16;;;;;;;2.20;1.50;;;8.00;99.90;;;;;;5051464;28;20520;-45
2022/04/07 04:22:43;;;;;;;1.00;0.80;;;8.10;99.90;;;;;;5051791;28;20516;-48
2022/04/07 04:25:10;;;;;;;1.00;0.80;;;8.00;99.90;;;;;;5051953;28;20507;-45
2022/04/07 04:27:37;;;;;;;1.43;1.33;;;8.10;99.90;;;;;;5051906;28;20548;-45
2022/04/07 04:30:04;;;;;;;1.90;0.73;;;8.20;99.90;;;;;;5050886;28;20501;-45
2022/04/07 04:32:31;;;;;;;1.10;1.00;;;8.40;99.90;;;;;;5051418;28;20447;-50
2022/04/07 04:34:59;;;;;;;2.73;1.60;;;8.50;99.90;;;;;;5051782;28;20444;-45
2022/04/07 04:37:27;;;;;;;3.60;3.30;;;8.40;99.90;;;;;;5051652;28;20532;-45
2022/04/07 04:39:54;;;;;;;1.63;1.53;;;8.50;99.90;;;;;;5051524;28;20475;-48
2022/04/07 04:42:21;;;;;;;1.10;0.90;;;8.50;99.90;;;;;;5051232;28;20536;-45
2022/04/07 04:44:49;;;;;;;1.00;0.90;;;8.50;99.90;;;;;;5051495;28;20981;-46
2022/04/07 04:47:18;;;;;;;1.27;1.17;;;8.60;99.90;;;;;;5051180;28;20449;-45
2022/04/07 04:49:45;;;;;;;1.97;1.80;;;8.70;99.90;;;;;;5051358;28;20465;-45
2022/04/07 04:52:14;;;;;;;3.60;3.13;;;8.80;99.90;;;;;;5051309;28;20439;-45
2022/04/07 04:54:41;;;;;;;3.47;3.17;;;8.70;99.90;;;;;;5051177;28;20445;-44
2022/04/07 04:57:08;;;;;;;2.40;2.20;;;8.80;99.90;;;;;;5051058;28;20465;-45
2022/04/07 04:59:35;;;;;;;2.97;2.10;;;8.90;99.90;;;;;;5051327;28;20536;-49
2022/04/07 05:02:04;;;;;;;2.93;2.63;;;8.90;99.90;;;;;;5051387;28;20521;-45
2022/04/07 05:04:31;;;;;;;2.90;2.63;;;9.00;99.90;;;;;;5051451;28;20477;-45
2022/04/07 05:06:58;;;;;;;3.47;2.40;;;9.00;99.90;;;;;;5051105;28;20536;-45
2022/04/07 05:09:26;;;;;;;2.13;1.77;;;8.80;99.90;;;;;;5050723;28;20493;-45
2022/04/07 05:11:53;;;;;;;1.93;1.83;;;8.30;99.90;;;;;;5051119;28;20552;-45
2022/04/07 05:14:20;;;;;;;1.80;1.70;;;7.80;99.90;;;;;;5051009;28;20476;-45
2022/04/07 05:16:47;;;;;;;1.90;1.80;;;7.90;99.90;;;;;;5051110;28;20896;-45
2022/04/07 05:19:14;;;;;;;1.90;1.70;;;8.00;99.90;;;;;;5050706;28;20462;-44
2022/04/07 05:21:41;;;;;;;2.43;2.00;;;8.10;99.90;;;;;;5051409;28;20441;-45
2022/04/07 05:24:08;;;;;;;1.73;1.30;;;7.70;99.90;;;;;;5050815;28;20505;-45
2022/04/07 05:26:36;;;;;;;1.87;1.70;;;7.50;99.90;;;;;;5051565;28;20447;-45
2022/04/07 05:29:04;;;;;;;2.63;2.10;;;7.60;99.90;;;;;;5053139;28;20556;-45
2022/04/07 05:31:31;;;;;;;1.50;1.37;;;7.80;99.90;;;;;;5054867;28;20938;-47
2022/04/07 05:33:58;;;;;;;9.63;6.77;;;8.00;99.90;;;;;;5054963;28;20472;-45
2022/04/07 05:36:26;;;;;;;21.83;14.13;;;8.20;99.90;;;;;;5054860;28;20445;-45
2022/04/07 05:38:53;;;;;;;2.90;1.90;;;8.40;99.90;;;;;;5054679;28;20829;-41
2022/04/07 05:41:19;;;;;;;2.80;2.60;;;8.50;99.90;;;;;;5054633;28;20464;-48
2022/04/07 05:43:48;;;;;;;4.10;2.90;;;8.60;99.90;;;;;;5055108;28;20941;-45
2022/04/07 05:46:15;;;;;;;2.57;2.37;;;8.60;99.90;;;;;;5054844;28;20473;-45
2022/04/07 05:48:42;;;;;;;3.77;3.20;;;8.70;99.90;;;;;;5054528;28;20528;-45
2022/04/07 05:51:09;;;;;;;2.67;2.47;;;8.60;99.90;;;;;;5054850;28;20469;-45
2022/04/07 05:53:36;;;;;;;2.60;2.17;;;8.60;99.90;;;;;;5054971;28;20493;-45
2022/04/07 05:56:03;;;;;;;2.67;2.30;;;8.60;99.90;;;;;;5054695;28;20491;-45
2022/04/07 05:58:30;;;;;;;2.43;2.23;;;8.60;99.90;;;;;;5054527;28;20471;-45
2022/04/07 06:00:58;;;;;;;1.87;1.77;;;8.70;99.90;;;;;;5054293;28;20465;-47
2022/04/07 06:03:25;;;;;;;1.43;1.33;;;8.70;99.90;;;;;;5054249;28;20476;-46
2022/04/07 06:05:53;;;;;;;3.30;2.77;;;8.80;99.90;;;;;;5053962;28;20985;-45
2022/04/07 06:08:21;;;;;;;4.13;3.70;;;8.90;99.90;;;;;;5054292;28;20457;-45
2022/04/07 06:10:48;;;;;;;5.27;4.30;;;8.80;99.90;;;;;;5054016;28;20917;-45
2022/04/07 06:13:15;;;;;;;2.90;2.03;;;8.70;99.90;;;;;;5054298;28;20499;-44
2022/04/07 06:15:43;;;;;;;3.53;3.20;;;8.80;99.90;;;;;;5054216;28;20946;-45
2022/04/07 06:18:13;;;;;;;3.97;3.30;;;8.80;99.90;;;;;;5054457;28;20437;-47
2022/04/07 06:20:40;;;;;;;3.30;2.80;;;8.80;99.90;;;;;;5054011;28;20839;-45
2022/04/07 06:23:08;;;;;;;3.13;2.50;;;8.70;99.90;;;;;;5054033;28;20464;-47
2022/04/07 06:25:34;;;;;;;3.80;3.50;;;8.60;99.90;;;;;;5054181;28;20441;-46
2022/04/07 06:28:04;;;;;;;2.27;2.07;;;8.70;99.90;;;;;;5053920;28;20477;-45
2022/04/07 06:30:31;;;;;;;4.60;4.30;;;8.80;99.90;;;;;;5053986;28;20484;-48
2022/04/07 06:32:58;;;;;;;5.23;4.73;;;9.00;99.90;;;;;;5053735;28;20887;-45
2022/04/07 06:35:26;;;;;;;2.90;2.40;;;8.80;99.90;;;;;;5053974;28;20451;-48
2022/04/07 06:37:56;;;;;;;6.97;3.10;;;8.60;99.90;;;;;;5053856;28;20520;-48
2022/04/07 06:40:25;;;;;;;2.93;2.27;;;8.60;99.90;;;;;;5053858;28;20462;-44
2022/04/07 06:42:53;;;;;;;2.33;2.13;;;8.50;99.90;;;;;;5053742;28;20449;-46
2022/04/07 06:45:21;;;;;;;2.50;2.30;;;8.40;99.90;;;;;;5053731;28;20477;-44
2022/04/07 06:47:48;;;;;;;3.07;2.30;;;8.40;99.90;;;;;;5053612;28;20491;-45
2022/04/07 06:50:16;;;;;;;3.47;2.10;;;8.70;99.90;;;;;;5053416;28;20515;-45
2022/04/07 06:52:45;;;;;;;5.03;2.80;;;9.00;99.90;;;;;;5053637;28;20532;-45
2022/04/07 06:55:13;;;;;;;1.93;1.73;;;9.20;99.90;;;;;;5053304;28;20516;-45
2022/04/07 06:57:54;;;;;;;4.20;2.10;;;9.40;99.90;;;;;;5053573;28;20536;-45
2022/04/07 07:00:23;;;;;;;2.37;2.17;;;9.50;99.90;;;;;;5053134;28;20498;-45
2022/04/07 07:02:51;;;;;;;3.10;2.40;;;9.40;99.90;;;;;;5053522;28;20469;-45
2022/04/07 07:05:19;;;;;;;6.93;2.17;;;9.20;99.90;;;;;;5052810;28;21111;-43
2022/04/07 07:07:47;;;;;;;2.80;2.23;;;9.30;99.90;;;;;;5053107;28;20997;-45
2022/04/07 07:10:20;;;;;;;2.60;2.30;;;9.50;99.90;;;;;;5053099;28;20484;-45
2022/04/07 07:12:47;;;;;;;2.10;1.90;;;9.60;99.90;;;;;;5053399;28;20481;-45
2022/04/07 07:15:14;;;;;;;2.23;1.40;;;9.60;99.90;;;;;;5052985;28;20990;-48
2022/04/07 07:17:41;;;;;;;2.07;1.73;;;9.70;99.90;;;;;;5053028;28;20533;-45
2022/04/07 07:20:10;;;;;;;2.53;1.80;;;9.90;99.90;;;;;;5052637;28;20496;-46
2022/04/07 07:22:37;;;;;;;1.87;1.27;;;9.60;99.90;;;;;;5053054;28;20475;-44
2022/04/07 07:25:07;;;;;;;2.27;1.37;;;9.90;99.90;;;;;;5052960;28;20481;-45
2022/04/07 07:27:38;;;;;;;2.00;1.80;;;10.10;99.90;;;;;;5053432;28;20480;-47
2022/04/07 07:30:09;;;;;;;2.63;2.43;;;10.30;99.90;;;;;;5111548;22;20564;-43
2022/04/07 07:32:36;;;;;;;4.13;2.00;;;10.40;99.90;;;;;;5052868;28;20445;-43
2022/04/07 07:35:03;;;;;;;3.23;1.73;;;10.40;99.90;;;;;;5052831;28;20943;-43
2022/04/07 07:37:30;;;;;;;1.80;1.57;;;10.50;99.90;;;;;;5052668;28;20476;-44
2022/04/07 07:39:57;;;;;;;2.83;1.67;;;10.60;99.90;;;;;;5052514;28;20465;-43
2022/04/07 07:42:25;;;;;;;2.43;1.73;;;10.90;99.90;;;;;;5052636;28;20821;-43
2022/04/07 07:44:52;;;;;;;2.43;1.50;;;10.90;99.90;;;;;;5053016;28;20481;-43
2022/04/07 07:47:19;;;;;;;1.40;1.23;;;11.00;99.90;;;;;;5052561;28;20922;-43
2022/04/07 07:49:46;;;;;;;1.83;1.50;;;11.10;99.90;;;;;;5052115;28;20497;-43
2022/04/07 07:52:13;;;;;;;1.80;1.40;;;11.10;99.90;;;;;;5051930;28;20486;-43
2022/04/07 07:54:40;;;;;;;2.67;2.10;;;10.70;99.90;;;;;;5052483;28;20442;-44
2022/04/07 07:57:07;;;;;;;2.50;1.67;;;10.70;99.90;;;;;;5052540;28;20544;-43
2022/04/07 07:59:35;;;;;;;1.20;1.10;;;10.80;99.90;;;;;;5051843;28;20495;-43
2022/04/07 08:02:02;;;;;;;1.20;1.10;;;10.90;99.90;;;;;;5052191;28;20503;-43
2022/04/07 08:04:29;;;;;;;1.93;1.30;;;11.00;99.90;;;;;;5052104;28;20912;-43
2022/04/07 08:06:56;;;;;;;0.90;0.80;;;11.10;99.90;;;;;;5052076;28;20449;-43
2022/04/07 08:09:23;;;;;;;0.97;0.87;;;11.20;99.90;;;;;;5051742;28;20927;-43
2022/04/07 08:11:50;;;;;;;0.80;0.70;;;11.00;99.90;;;;;;5052210;28;20503;-43
2022/04/07 08:14:17;;;;;;;0.90;0.70;;;10.70;99.90;;;;;;5051947;28;20537;-43
2022/04/07 08:16:45;;;;;;;0.90;0.50;;;10.60;99.90;;;;;;5052023;28;20866;-43
2022/04/07 08:19:12;;;;;;;0.90;0.77;;;10.80;99.90;;;;;;5051967;28;20449;-43
2022/04/07 08:21:39;;;;;;;1.00;0.67;;;10.80;99.90;;;;;;5051882;28;20449;-43
2022/04/07 08:24:06;;;;;;;1.77;0.80;;;10.80;99.90;;;;;;5051582;28;20563;-43
2022/04/07 08:26:34;;;;;;;0.80;0.60;;;10.90;99.90;;;;;;5051863;28;20449;-43
2022/04/07 08:29:01;;;;;;;0.90;0.70;;;11.10;99.90;;;;;;5051239;28;20454;-43
2022/04/07 08:31:28;;;;;;;0.70;0.60;;;11.30;99.90;;;;;;5051480;28;20534;-43
2022/04/07 08:33:56;;;;;;;1.10;0.80;;;11.40;99.90;;;;;;5051629;28;20986;-43
2022/04/07 08:36:23;;;;;;;0.80;0.60;;;11.60;99.90;;;;;;5051630;28;20878;-43
2022/04/07 08:38:50;;;;;;;0.80;0.60;;;11.80;99.90;;;;;;5051238;28;20477;-44
2022/04/07 08:41:18;;;;;;;1.27;0.80;;;12.00;99.90;;;;;;5051576;28;20462;-43
2022/04/07 08:43:45;;;;;;;1.10;1.00;;;12.30;99.90;;;;;;5051670;28;20524;-43
2022/04/07 08:46:13;;;;;;;0.80;0.60;;;12.20;99.90;;;;;;5051684;28;20440;-43
2022/04/07 08:48:42;;;;;;;0.90;0.70;;;12.10;99.90;;;;;;5051550;28;20437;-44
2022/04/07 08:51:11;;;;;;;0.87;0.73;;;12.10;99.90;;;;;;5051292;28;20469;-44
2022/04/07 08:53:39;;;;;;;73.33;46.83;;;12.10;99.90;;;;;;5051461;28;20441;-43
2022/04/07 08:56:08;;;;;;;12.50;7.83;;;12.30;99.90;;;;;;5051440;28;20471;-44
2022/04/07 08:58:35;;;;;;;4.00;2.83;;;12.70;99.90;;;;;;5051352;28;20495;-43
2022/04/07 09:01:02;;;;;;;1.10;0.47;;;13.00;99.90;;;;;;5050873;28;20512;-44
2022/04/07 09:03:29;;;;;;;1.33;0.60;;;13.30;99.90;;;;;;5050284;28;20851;-44
2022/04/07 09:05:58;;;;;;;0.80;0.60;;;13.60;99.90;;;;;;5050782;28;20552;-43
2022/04/07 09:08:34;;;;;;;1.20;1.10;;;13.70;99.90;;;;;;5051283;28;20546;-44
2022/04/07 09:11:02;;;;;;;0.80;0.70;;;14.00;99.90;;;;;;5050949;28;20534;-44
2022/04/07 09:13:31;;;;;;;0.97;0.63;;;14.30;99.90;;;;;;5051254;28;20452;-44
2022/04/07 09:16:00;;;;;;;0.90;0.60;;;14.60;99.90;;;;;;5051430;28;20441;-45
2022/04/07 09:18:27;;;;;;;0.90;0.43;;;14.90;99.90;;;;;;5051099;28;20441;-44
2022/04/07 09:20:54;;;;;;;2.60;0.80;;;15.30;99.90;;;;;;5050781;28;20522;-44
2022/04/07 09:23:21;;;;;;;1.10;1.00;;;15.40;99.90;;;;;;5050726;28;20736;-44
2022/04/07 09:25:51;;;;;;;1.53;0.60;;;15.60;99.90;;;;;;5050701;28;20473;-44
2022/04/07 09:28:28;;;;;;;1.00;0.70;;;15.60;99.90;;;;;;5050971;28;20522;-44
2022/04/07 09:30:57;;;;;;;0.70;0.60;;;15.60;99.90;;;;;;5050429;28;20503;-44
2022/04/07 09:33:25;;;;;;;0.80;0.40;;;15.80;99.90;;;;;;5050790;28;20442;-45
2022/04/07 09:36:03;;;;;;;0.80;0.67;;;16.00;99.90;;;;;;5050513;28;20532;-44
2022/04/07 09:38:31;;;;;;;0.83;0.50;;;16.00;99.90;;;;;;5050970;28;20718;-44
2022/04/07 09:41:07;;;;;;;0.80;0.60;;;16.00;99.90;;;;;;5050706;28;20836;-44
2022/04/07 09:43:45;;;;;;;1.53;0.80;;;15.90;99.90;;;;;;5050777;28;20483;-44
2022/04/07 09:46:13;;;;;;;0.70;0.60;;;16.00;99.90;;;;;;5050527;28;20564;-44
2022/04/07 09:48:40;;;;;;;1.10;0.60;;;16.20;99.90;;;;;;5050641;28;20445;-44
2022/04/07 09:51:09;;;;;;;1.23;0.50;;;16.50;99.90;;;;;;5049928;28;20565;-45
2022/04/07 09:53:38;;;;;;;2.53;0.70;;;16.50;99.90;;;;;;5050691;28;20444;-44
2022/04/07 09:56:07;;;;;;;0.70;0.47;;;16.70;99.90;;;;;;5050734;28;20993;-44
2022/04/07 09:58:36;;;;;;;0.80;0.60;;;16.80;99.90;;;;;;5050565;28;20476;-44
2022/04/07 10:01:04;;;;;;;1.10;0.70;;;16.90;99.90;;;;;;5049350;28;20466;-44
2022/04/07 10:03:32;;;;;;;1.73;0.50;;;16.90;99.90;;;;;;5039468;28;20519;-44
2022/04/07 10:05:59;;;;;;;0.80;0.50;;;16.90;99.90;;;;;;5049037;28;20473;-44
2022/04/07 10:08:27;;;;;;;2.13;0.83;;;17.00;99.90;;;;;;5050013;28;20540;-44
2022/04/07 10:10:55;;;;;;;0.80;0.60;;;17.10;99.90;;;;;;5050312;28;20465;-44
2022/04/07 10:13:24;;;;;;;0.80;0.50;;;17.10;99.90;;;;;;5050663;28;20469;-44
2022/04/07 10:15:52;;;;;;;1.50;0.70;;;17.10;99.90;;;;;;5053556;28;20429;-44
2022/04/07 10:18:25;;;;;;;1.00;0.67;;;16.90;99.90;;;;;;5054203;28;20441;-44
2022/04/07 10:20:57;;;;;;;0.90;0.70;;;17.00;99.90;;;;;;5053489;28;20469;-44
2022/04/07 10:23:46;;;;;;;0.80;0.57;;;17.00;99.90;;;;;;5053897;28;20445;-44
2022/04/07 10:26:14;;;;;;;0.80;0.57;;;17.10;99.90;;;;;;5053862;28;20461;-44
2022/04/07 10:28:42;;;;;;;1.30;0.70;;;17.20;99.90;;;;;;5052806;28;20473;-44
2022/04/07 10:31:15;;;;;;;0.70;0.43;;;17.20;99.90;;;;;;5060917;28;20497;-44
2022/04/07 10:33:44;;;;;;;0.80;0.60;;;17.30;99.90;;;;;;5062384;28;20477;-42
2022/04/07 10:36:16;;;;;;;0.83;0.60;;;17.40;99.90;;;;;;5060083;28;20444;-42
2022/04/07 10:38:44;;;;;;;1.20;0.50;;;17.30;99.90;;;;;;5062249;28;20809;-41
2022/04/07 10:41:12;;;;;;;1.43;0.60;;;17.40;99.90;;;;;;5063061;28;20834;-42
2022/04/07 10:43:40;;;;;;;1.77;0.50;;;17.40;99.90;;;;;;5061217;28;20460;-42
2022/04/07 10:46:16;;;;;;;1.20;0.70;;;17.60;99.90;;;;;;5059069;28;20988;-41
2022/04/07 10:48:51;;;;;;;1.20;0.80;;;17.60;99.90;;;;;;5063809;28;20456;-41
2022/04/07 10:51:19;;;;;;;1.60;0.90;;;17.60;99.90;;;;;;5054780;28;20872;-41
2022/04/07 10:54:02;;;;;;;2.17;1.67;;;17.60;99.90;;;;;;5052699;28;20953;-41
2022/04/07 10:56:32;;;;;;;1.00;0.77;;;17.60;99.90;;;;;;5035335;28;20446;-41
2022/04/07 10:59:13;;;;;;;1.27;0.70;;;17.70;99.90;;;;;;5052767;28;20452;-41
2022/04/07 11:02:00;;;;;;;1.37;0.80;;;17.50;99.90;;;;;;5052368;28;20441;-42
2022/04/07 11:04:46;;;;;;;1.30;0.90;;;17.60;99.90;;;;;;5052434;28;20548;-41
2022/04/07 11:07:18;;;;;;;1.13;0.90;;;17.80;99.90;;;;;;5051816;28;20961;-41
2022/04/07 11:09:53;;;;;;;1.50;1.03;;;17.90;99.90;;;;;;5053309;28;20473;-42
2022/04/07 11:12:23;;;;;;;1.50;1.00;;;18.00;99.60;;;;;;5052929;28;20494;-42
2022/04/07 11:14:52;;;;;;;1.27;0.80;;;18.20;99.70;;;;;;5051881;28;20488;-44
2022/04/07 11:17:33;;;;;;;1.57;0.70;;;18.20;98.10;;;;;;5049972;28;20888;-42
2022/04/07 11:20:06;;;;;;;1.07;0.77;;;18.30;99.30;;;;;;5052342;28;20469;-42
2022/04/07 11:22:53;;;;;;;1.00;0.70;;;18.40;93.20;;;;;;5052649;28;20491;-42
2022/04/07 11:25:29;;;;;;;0.93;0.70;;;18.50;90.00;;;;;;5050997;28;20514;-42
2022/04/07 11:28:14;;;;;;;1.37;0.77;;;18.60;88.80;;;;;;5053057;28;20528;-42
2022/04/07 11:30:44;;;;;;;1.07;0.70;;;18.70;85.20;;;;;;5052221;28;20524;-42
2022/04/07 11:33:40;;;;;;;2.97;1.40;;;18.90;87.70;;;;;;5053103;28;20457;-42
2022/04/07 11:36:34;;;;;;;1.57;1.00;;;19.10;84.70;;;;;;5052453;28;20433;-42
2022/04/07 11:39:01;;;;;;;1.40;0.77;;;19.10;77.90;;;;;;5047372;28;20446;-42
2022/04/07 11:41:41;;;;;;;1.70;1.00;;;19.00;74.00;;;;;;5052187;28;20462;-42
2022/04/07 11:44:10;;;;;;;1.83;1.30;;;19.10;76.70;;;;;;5052202;28;20456;-42
2022/04/07 11:46:37;;;;;;;2.27;1.37;;;19.10;75.40;;;;;;5052106;28;20469;-42
2022/04/07 11:49:07;;;;;;;1.40;1.20;;;19.10;69.30;;;;;;5060660;28;20441;-42
2022/04/07 11:51:35;;;;;;;2.00;1.33;;;19.00;65.30;;;;;;5051843;28;20835;-42
2022/04/07 11:54:03;;;;;;;1.40;1.00;;;19.00;77.10;;;;;;5046191;28;20442;-42
2022/04/07 11:56:32;;;;;;;1.80;1.10;;;19.10;74.90;;;;;;5051933;28;20481;-42
2022/04/07 11:59:02;;;;;;;7.23;2.30;;;19.10;74.10;;;;;;5051582;28;20445;-42
2022/04/07 12:01:29;;;;;;;3.57;1.50;;;19.10;73.00;;;;;;5051158;28;21055;-42
2022/04/07 12:03:58;;;;;;;2.47;1.33;;;19.00;67.50;;;;;;5051748;28;20533;-43
2022/04/07 12:06:28;;;;;;;6.90;3.50;;;19.20;72.60;;;;;;5051479;28;20507;-42
2022/04/07 12:08:56;;;;;;;3.10;1.60;;;19.30;70.50;;;;;;5051697;28;20882;-47
2022/04/07 12:11:24;;;;;;;2.47;1.60;;;19.30;69.80;;;;;;5051994;28;20461;-43
2022/04/07 12:13:52;;;;;;;4.70;1.50;;;19.40;73.20;;;;;;5051435;28;20449;-43
2022/04/07 12:16:19;;;;;;;3.87;1.50;;;19.50;71.10;;;;;;5051448;28;20477;-42
2022/04/07 12:18:53;;;;;;;3.33;1.27;;;19.50;73.10;;;;;;5051944;28;20442;-42
2022/04/07 12:21:21;;;;;;;5.50;1.60;;;19.40;71.40;;;;;;5051709;28;20496;-42
2022/04/07 12:23:50;;;;;;;3.47;1.30;;;19.10;70.10;;;;;;5051962;28;20445;-42
2022/04/07 12:26:17;;;;;;;3.50;1.87;;;19.00;68.70;;;;;;5051645;28;20513;-42
2022/04/07 12:28:43;;;;;;;3.77;1.97;;;18.90;69.30;;;;;;5050742;28;20972;-42
2022/04/07 12:31:12;;;;;;;2.50;1.40;;;18.90;70.30;;;;;;5050503;28;20542;-42
2022/04/07 12:33:44;;;;;;;2.00;1.70;;;19.00;70.30;;;;;;5051680;28;20441;-42
2022/04/07 12:36:13;;;;;;;2.53;1.80;;;19.10;68.40;;;;;;5051187;28;20441;-42
2022/04/07 12:38:40;;;;;;;1.90;1.30;;;19.30;69.10;;;;;;5051150;28;20480;-42
2022/04/07 12:41:14;;;;;;;3.07;2.30;;;19.20;67.10;;;;;;5051829;28;20522;-42
2022/04/07 12:43:50;;;;;;;2.90;1.70;;;19.20;72.10;;;;;;5051481;28;20467;-42
2022/04/07 12:46:18;;;;;;;2.67;1.30;;;19.10;67.00;;;;;;5051620;28;20483;-42
2022/04/07 12:49:05;;;;;;;2.43;2.23;;;19.00;63.90;;;;;;5051541;28;20457;-42
2022/04/07 12:51:33;;;;;;;3.00;2.33;;;19.10;67.80;;;;;;5051148;28;20472;-42
2022/04/07 12:54:14;;;;;;;2.97;2.63;;;19.10;68.30;;;;;;5051608;28;20445;-42
2022/04/07 12:56:43;;;;;;;2.90;2.70;;;19.00;67.50;;;;;;5051372;28;20469;-43
2022/04/07 12:59:12;;;;;;;2.63;2.03;;;19.00;69.40;;;;;;5050879;28;20450;-42
2022/04/07 13:01:40;;;;;;;3.37;2.10;;;18.90;69.60;;;;;;5051500;28;20449;-42